createdAt,value
2022-07-30T00:00:42.498Z,1000.05
2022-07-30T00:01:47.039Z,1000.05
2022-07-30T00:02:51.560Z,1000.02
2022-07-30T00:04:03.771Z,999.98
2022-07-30T00:05:08.071Z,999.97
2022-07-30T00:06:12.621Z,999.96
2022-07-30T00:07:17.102Z,1000
2022-07-30T00:08:22.186Z,1000.02
2022-07-30T00:09:26.981Z,999.97
2022-07-30T00:10:31.468Z,1000
2022-07-30T00:11:35.968Z,1000.01
2022-07-30T00:12:40.447Z,999.99
2022-07-30T00:13:44.966Z,1000.02
2022-07-30T00:14:49.458Z,1000.05
2022-07-30T00:15:54.023Z,999.96
2022-07-30T00:17:01.009Z,999.99
2022-07-30T00:18:06.052Z,1000.05
2022-07-30T00:19:10.557Z,999.98
2022-07-30T00:20:16.473Z,999.98
2022-07-30T00:21:38.954Z,1000.02
2022-07-30T00:22:43.232Z,999.98
2022-07-30T00:24:02.358Z,1000.03
2022-07-30T00:25:06.893Z,999.98
2022-07-30T00:26:11.329Z,999.91
2022-07-30T00:27:15.815Z,999.96
2022-07-30T00:28:20.298Z,999.97
2022-07-30T00:29:24.752Z,999.93
2022-07-30T00:30:29.487Z,999.94
2022-07-30T00:31:33.994Z,999.94
2022-07-30T00:32:38.505Z,999.95
2022-07-30T00:33:43.013Z,999.91
2022-07-30T00:34:47.499Z,999.96
2022-07-30T00:35:52.063Z,999.92
2022-07-30T00:36:56.603Z,999.96
2022-07-30T00:38:01.100Z,999.88
2022-07-30T00:39:05.579Z,999.93
2022-07-30T00:40:10.056Z,999.97
2022-07-30T00:41:16.040Z,999.99
2022-07-30T00:42:20.441Z,999.93
2022-07-30T00:43:24.903Z,999.93
2022-07-30T00:44:29.462Z,999.91
2022-07-30T00:45:34.137Z,999.92
2022-07-30T00:46:38.733Z,999.92
2022-07-30T00:47:43.267Z,999.92
2022-07-30T00:48:48.083Z,999.9
2022-07-30T00:49:52.585Z,999.91
2022-07-30T00:50:57.504Z,999.92
2022-07-30T00:52:02.167Z,999.89
2022-07-30T00:53:06.684Z,999.86
2022-07-30T00:54:11.148Z,999.92
2022-07-30T00:55:15.718Z,999.89
2022-07-30T00:56:20.233Z,999.91
2022-07-30T00:57:26.351Z,999.86
2022-07-30T00:58:30.750Z,999.94
2022-07-30T00:59:35.245Z,999.96
2022-07-30T01:00:39.847Z,999.93
2022-07-30T01:01:44.647Z,999.96
2022-07-30T01:02:49.193Z,999.95
2022-07-30T01:03:53.684Z,999.94
2022-07-30T01:05:03.720Z,1000
2022-07-30T01:06:14.765Z,999.95
2022-07-30T01:07:18.967Z,1000.06
2022-07-30T01:08:23.439Z,1000.04
2022-07-30T01:09:27.920Z,1000.02
2022-07-30T01:10:32.417Z,1000.06
2022-07-30T01:11:36.908Z,1000.09
2022-07-30T01:12:41.396Z,1000.1
2022-07-30T01:13:45.972Z,1000.09
2022-07-30T01:14:50.441Z,1000.11
2022-07-30T01:15:54.985Z,1000.1
2022-07-30T01:17:00.400Z,1000.08
2022-07-30T01:18:04.962Z,1000.1
2022-07-30T01:19:09.470Z,1000.13
2022-07-30T01:20:13.983Z,1000.03
2022-07-30T01:21:18.521Z,1000.08
2022-07-30T01:22:31.390Z,1000.07
2022-07-30T01:23:35.874Z,1000.12
2022-07-30T01:24:40.373Z,1000.08
2022-07-30T01:25:44.847Z,1000.04
2022-07-30T01:26:49.335Z,999.98
2022-07-30T01:27:53.772Z,1000.05
2022-07-30T01:28:58.317Z,1000.02
2022-07-30T01:30:02.908Z,1000
2022-07-30T01:31:07.381Z,999.97
2022-07-30T01:32:11.894Z,1000.01
2022-07-30T01:33:16.464Z,999.97
2022-07-30T01:34:21.274Z,999.94
2022-07-30T01:35:25.823Z,999.95
2022-07-30T01:36:32.780Z,999.91
2022-07-30T01:37:37.171Z,999.9
2022-07-30T01:38:41.689Z,999.94
2022-07-30T01:39:46.534Z,999.95
2022-07-30T01:40:51.022Z,999.93
2022-07-30T01:41:55.476Z,999.89
2022-07-30T01:42:59.965Z,999.89
2022-07-30T01:44:04.562Z,999.94
2022-07-30T01:45:09.011Z,999.91
2022-07-30T01:46:14.204Z,999.94
2022-07-30T01:47:18.699Z,999.89
2022-07-30T01:48:23.214Z,999.91
2022-07-30T01:49:27.723Z,999.94
2022-07-30T01:50:32.257Z,999.98
2022-07-30T01:51:38.111Z,999.96
2022-07-30T01:52:42.525Z,999.98
2022-07-30T01:53:47.003Z,999.96
2022-07-30T01:55:03.643Z,999.95
2022-07-30T01:56:17.217Z,999.98
2022-07-30T01:57:21.435Z,999.97
2022-07-30T01:58:25.895Z,1000.04
2022-07-30T01:59:33.897Z,1000.05
2022-07-30T02:00:38.442Z,999.97
2022-07-30T02:01:42.937Z,999.99
2022-07-30T02:02:47.393Z,1000.02
2022-07-30T02:03:52.278Z,1000.03
2022-07-30T02:04:56.813Z,1000.11
2022-07-30T02:06:01.357Z,1000.15
2022-07-30T02:07:05.858Z,1000.14
2022-07-30T02:08:10.339Z,1000.16
2022-07-30T02:09:14.823Z,1000.16
2022-07-30T02:10:21.095Z,1000.14
2022-07-30T02:11:25.511Z,1000.19
2022-07-30T02:12:30.070Z,1000.13
2022-07-30T02:13:34.591Z,1000.15
2022-07-30T02:14:39.067Z,1000.16
2022-07-30T02:15:43.554Z,1000.16
2022-07-30T02:16:48.252Z,1000.23
2022-07-30T02:17:52.785Z,1000.17
2022-07-30T02:18:59.439Z,1000.18
2022-07-30T02:20:40.130Z,1000.13
2022-07-30T02:21:51.797Z,1000.25
2022-07-30T02:22:56.077Z,1000.21
2022-07-30T02:24:00.527Z,1000.24
2022-07-30T02:25:05.681Z,1000.18
2022-07-30T02:26:10.191Z,1000.27
2022-07-30T02:27:14.669Z,1000.21
2022-07-30T02:28:19.173Z,1000.23
2022-07-30T02:29:23.675Z,1000.26
2022-07-30T02:30:28.185Z,1000.27
2022-07-30T02:31:32.932Z,1000.27
2022-07-30T02:32:37.465Z,1000.25
2022-07-30T02:33:49.352Z,1000.25
2022-07-30T02:34:53.545Z,1000.29
2022-07-30T02:35:58.030Z,1000.3
2022-07-30T02:37:03.989Z,1000.29
2022-07-30T02:38:08.411Z,1000.32
2022-07-30T02:39:12.877Z,1000.32
2022-07-30T02:40:17.384Z,1000.3
2022-07-30T02:41:21.856Z,1000.34
2022-07-30T02:42:26.352Z,1000.32
2022-07-30T02:43:36.723Z,1000.36
2022-07-30T02:44:40.978Z,1000.34
2022-07-30T02:45:45.441Z,1000.34
2022-07-30T02:46:50.379Z,1000.37
2022-07-30T02:47:55.394Z,1000.42
2022-07-30T02:49:00.145Z,1000.36
2022-07-30T02:50:04.724Z,1000.38
2022-07-30T02:51:09.220Z,1000.4
2022-07-30T02:52:13.701Z,1000.39
2022-07-30T02:53:18.194Z,1000.4
2022-07-30T02:54:22.701Z,1000.45
2022-07-30T02:55:27.185Z,1000.41
2022-07-30T02:56:31.775Z,1000.36
2022-07-30T02:57:43.881Z,1000.42
2022-07-30T02:58:48.057Z,1000.4
2022-07-30T02:59:52.573Z,1000.45
2022-07-30T03:00:57.420Z,1000.48
2022-07-30T03:02:02.204Z,1000.47
2022-07-30T03:03:06.698Z,1000.45
2022-07-30T03:04:11.178Z,1000.42
2022-07-30T03:05:15.643Z,1000.48
2022-07-30T03:06:20.200Z,1000.43
2022-07-30T03:07:24.636Z,1000.43
2022-07-30T03:08:29.187Z,1000.49
2022-07-30T03:09:51.185Z,1000.51
2022-07-30T03:10:56.521Z,1000.47
2022-07-30T03:12:00.997Z,1000.54
2022-07-30T03:13:05.444Z,1000.5
2022-07-30T03:14:09.950Z,1000.51
2022-07-30T03:15:17.233Z,1000.5
2022-07-30T03:16:21.888Z,1000.54
2022-07-30T03:17:26.396Z,1000.51
2022-07-30T03:18:30.914Z,1000.52
2022-07-30T03:19:35.389Z,1000.51
2022-07-30T03:20:39.910Z,1000.54
2022-07-30T03:21:44.420Z,1000.56
2022-07-30T03:22:48.918Z,1000.52
2022-07-30T03:23:53.420Z,1000.53
2022-07-30T03:24:57.964Z,1000.49
2022-07-30T03:26:02.451Z,1000.5
2022-07-30T03:27:06.898Z,1000.52
2022-07-30T03:28:11.398Z,1000.52
2022-07-30T03:29:21.947Z,1000.53
2022-07-30T03:30:26.297Z,1000.51
2022-07-30T03:31:38.366Z,1000.51
2022-07-30T03:32:43.250Z,1000.53
2022-07-30T03:33:47.733Z,1000.53
2022-07-30T03:34:52.424Z,1000.54
2022-07-30T03:35:56.908Z,1000.57
2022-07-30T03:37:02.979Z,1000.57
2022-07-30T03:38:07.598Z,1000.58
2022-07-30T03:39:12.075Z,1000.56
2022-07-30T03:40:19.295Z,1000.55
2022-07-30T03:41:23.692Z,1000.55
2022-07-30T03:42:28.191Z,1000.6
2022-07-30T03:43:34.491Z,1000.61
2022-07-30T03:44:39.232Z,1000.6
2022-07-30T03:45:43.744Z,1000.65
2022-07-30T03:46:48.616Z,1000.71
2022-07-30T03:47:53.150Z,1000.66
2022-07-30T03:48:57.947Z,1000.73
2022-07-30T03:50:02.446Z,1000.71
2022-07-30T03:51:06.988Z,1000.74
2022-07-30T03:52:11.449Z,1000.78
2022-07-30T03:53:15.973Z,1000.74
2022-07-30T03:54:20.490Z,1000.73
2022-07-30T03:55:24.957Z,1000.78
2022-07-30T03:56:29.522Z,1000.7
2022-07-30T03:57:34.018Z,1000.77
2022-07-30T03:58:38.525Z,1000.73
2022-07-30T03:59:43.069Z,1000.71
2022-07-30T04:00:47.566Z,1000.77
2022-07-30T04:01:52.456Z,1000.8
2022-07-30T04:02:56.978Z,1000.76
2022-07-30T04:04:01.594Z,1000.75
2022-07-30T04:05:06.106Z,1000.7
2022-07-30T04:06:10.620Z,1000.7
2022-07-30T04:07:15.172Z,1000.73
2022-07-30T04:08:21.391Z,1000.73
2022-07-30T04:09:25.794Z,1000.7
2022-07-30T04:10:30.278Z,1000.7
2022-07-30T04:11:42.202Z,1000.76
2022-07-30T04:12:46.436Z,1000.74
2022-07-30T04:13:50.889Z,1000.75
2022-07-30T04:14:55.437Z,1000.73
2022-07-30T04:16:38.575Z,1000.76
2022-07-30T04:17:25.030Z,1000.75
2022-07-30T04:18:29.467Z,1000.78
2022-07-30T04:19:33.919Z,1000.78
2022-07-30T04:20:38.426Z,1000.81
2022-07-30T04:21:42.901Z,1000.83
2022-07-30T04:22:47.404Z,1000.83
2022-07-30T04:24:05.692Z,1000.83
2022-07-30T04:25:18.486Z,1000.84
2022-07-30T04:26:24.280Z,1000.78
2022-07-30T04:27:28.723Z,1000.77
2022-07-30T04:28:33.187Z,1000.82
2022-07-30T04:29:37.672Z,1000.8
2022-07-30T04:30:42.176Z,1000.82
2022-07-30T04:31:47.248Z,1000.85
2022-07-30T04:32:52.305Z,1000.89
2022-07-30T04:34:05.157Z,1000.85
2022-07-30T04:35:09.300Z,1000.86
2022-07-30T04:36:16.741Z,1000.89
2022-07-30T04:37:21.302Z,1000.86
2022-07-30T04:38:25.779Z,1000.91
2022-07-30T04:39:30.263Z,1000.87
2022-07-30T04:40:34.764Z,1000.93
2022-07-30T04:41:50.409Z,1000.94
2022-07-30T04:42:54.535Z,1000.97
2022-07-30T04:43:59.040Z,1000.99
2022-07-30T04:45:03.513Z,1001
2022-07-30T04:46:08.238Z,1000.98
2022-07-30T04:47:13.986Z,1001.01
2022-07-30T04:48:18.429Z,1001.03
2022-07-30T04:49:23.300Z,1000.99
2022-07-30T04:50:27.773Z,1001.02
2022-07-30T04:51:32.302Z,1001.01
2022-07-30T04:52:36.765Z,1001.08
2022-07-30T04:53:41.209Z,1001.07
2022-07-30T04:54:45.709Z,1001.08
2022-07-30T04:55:50.218Z,1001.06
2022-07-30T04:56:54.690Z,1001.06
2022-07-30T04:58:02.455Z,1001.02
2022-07-30T04:59:06.773Z,1001.07
2022-07-30T05:00:11.268Z,1001.14
2022-07-30T05:01:15.912Z,1001.11
2022-07-30T05:02:20.613Z,1001.11
2022-07-30T05:03:25.093Z,1001.1
2022-07-30T05:04:29.851Z,1001.1
2022-07-30T05:05:34.742Z,1001.07
2022-07-30T05:06:39.264Z,1001.15
2022-07-30T05:07:43.778Z,1001.1
2022-07-30T05:08:48.295Z,1001.14
2022-07-30T05:09:52.854Z,1001.14
2022-07-30T05:10:57.320Z,1001.14
2022-07-30T05:12:01.824Z,1001.19
2022-07-30T05:13:08.332Z,1001.16
2022-07-30T05:14:12.759Z,1001.22
2022-07-30T05:15:17.339Z,1001.15
2022-07-30T05:16:22.121Z,1001.19
2022-07-30T05:17:26.607Z,1001.13
2022-07-30T05:18:31.105Z,1001.17
2022-07-30T05:19:35.712Z,1001.17
2022-07-30T05:20:40.170Z,1001.2
2022-07-30T05:21:44.663Z,1001.21
2022-07-30T05:22:51.498Z,1001.18
2022-07-30T05:23:55.968Z,1001.23
2022-07-30T05:25:00.954Z,1001.28
2022-07-30T05:26:05.354Z,1001.25
2022-07-30T05:27:09.853Z,1001.25
2022-07-30T05:28:14.337Z,1001.23
2022-07-30T05:29:20.594Z,1001.23
2022-07-30T05:30:28.087Z,1001.21
2022-07-30T05:31:34.016Z,1001.26
2022-07-30T05:32:39.119Z,1001.25
2022-07-30T05:33:44.032Z,1001.27
2022-07-30T05:34:51.452Z,1001.26
2022-07-30T05:35:56.109Z,1001.26
2022-07-30T05:37:02.054Z,1001.32
2022-07-30T05:38:06.707Z,1001.28
2022-07-30T05:39:11.236Z,1001.31
2022-07-30T05:40:15.748Z,1001.3
2022-07-30T05:41:33.357Z,1001.31
2022-07-30T05:42:37.734Z,1001.3
2022-07-30T05:43:42.230Z,1001.33
2022-07-30T05:44:46.753Z,1001.35
2022-07-30T05:47:04.353Z,1001.28
2022-07-30T05:48:08.838Z,1001.29
2022-07-30T05:49:13.539Z,1001.27
2022-07-30T05:50:18.060Z,1001.29
2022-07-30T05:51:22.763Z,1001.32
2022-07-30T05:52:27.333Z,1001.27
2022-07-30T05:53:31.937Z,1001.27
2022-07-30T05:54:36.464Z,1001.31
2022-07-30T05:55:41.094Z,1001.32
2022-07-30T05:56:45.513Z,1001.33
2022-07-30T05:57:50.930Z,1001.29
2022-07-30T05:58:55.504Z,1001.38
2022-07-30T06:00:00.067Z,1001.3
2022-07-30T06:01:04.599Z,1001.31
2022-07-30T06:02:09.152Z,1001.32
2022-07-30T06:03:15.227Z,1001.3
2022-07-30T06:04:19.966Z,1001.32
2022-07-30T06:05:26.019Z,1001.35
2022-07-30T06:06:30.439Z,1001.3
2022-07-30T06:07:35.023Z,1001.34
2022-07-30T06:08:39.711Z,1001.32
2022-07-30T06:09:44.247Z,1001.34
2022-07-30T06:10:48.865Z,1001.34
2022-07-30T06:11:57.773Z,1001.37
2022-07-30T06:13:02.101Z,1001.4
2022-07-30T06:14:06.630Z,1001.38
2022-07-30T06:15:11.211Z,1001.41
2022-07-30T06:16:16.046Z,1001.37
2022-07-30T06:17:20.641Z,1001.4
2022-07-30T06:18:25.225Z,1001.44
2022-07-30T06:19:32.996Z,1001.46
2022-07-30T06:20:39.071Z,1001.46
2022-07-30T06:22:01.469Z,1001.47
2022-07-30T06:23:07.461Z,1001.48
2022-07-30T06:24:11.962Z,1001.51
2022-07-30T06:25:19.069Z,1001.47
2022-07-30T06:26:23.449Z,1001.46
2022-07-30T06:27:39.833Z,1001.48
2022-07-30T06:28:44.204Z,1001.5
2022-07-30T06:29:48.711Z,1001.5
2022-07-30T06:30:53.738Z,1001.44
2022-07-30T06:31:58.299Z,1001.42
2022-07-30T06:33:02.852Z,1001.4
2022-07-30T06:34:07.469Z,1001.42
2022-07-30T06:35:12.019Z,1001.47
2022-07-30T06:36:16.609Z,1001.44
2022-07-30T06:37:58.853Z,1001.45
2022-07-30T06:38:45.018Z,1001.5
2022-07-30T06:39:58.914Z,1001.49
2022-07-30T06:41:04.970Z,1001.47
2022-07-30T06:42:09.365Z,1001.48
2022-07-30T06:43:13.901Z,1001.44
2022-07-30T06:44:18.420Z,1001.5
2022-07-30T06:45:23.979Z,1001.46
2022-07-30T06:46:28.824Z,1001.49
2022-07-30T06:47:33.432Z,1001.46
2022-07-30T06:48:38.033Z,1001.45
2022-07-30T06:49:42.615Z,1001.47
2022-07-30T06:50:47.155Z,1001.48
2022-07-30T06:51:51.676Z,1001.54
2022-07-30T06:52:56.229Z,1001.54
2022-07-30T06:54:00.901Z,1001.54
2022-07-30T06:55:05.484Z,1001.59
2022-07-30T06:56:10.041Z,1001.56
2022-07-30T06:57:14.737Z,1001.58
2022-07-30T06:58:25.979Z,1001.59
2022-07-30T06:59:30.302Z,1001.59
2022-07-30T07:00:34.813Z,1001.65
2022-07-30T07:01:39.714Z,1001.65
2022-07-30T07:02:44.409Z,1001.68
2022-07-30T07:03:48.999Z,1001.68
2022-07-30T07:04:53.682Z,1001.68
2022-07-30T07:05:58.236Z,1001.64
2022-07-30T07:07:13.898Z,1001.68
2022-07-30T07:08:19.620Z,1001.74
2022-07-30T07:09:28.803Z,1001.73
2022-07-30T07:10:33.344Z,1001.71
2022-07-30T07:11:37.908Z,1001.74
2022-07-30T07:12:42.471Z,1001.77
2022-07-30T07:13:47.089Z,1001.71
2022-07-30T07:14:51.597Z,1001.69
2022-07-30T07:15:56.181Z,1001.65
2022-07-30T07:17:03.090Z,1001.68
2022-07-30T07:18:07.793Z,1001.7
2022-07-30T07:20:00.633Z,1001.69
2022-07-30T07:20:36.627Z,1001.68
2022-07-30T07:21:41.165Z,1001.71
2022-07-30T07:22:45.828Z,1001.63
2022-07-30T07:23:50.413Z,1001.64
2022-07-30T07:24:55.032Z,1001.64
2022-07-30T07:25:59.626Z,1001.64
2022-07-30T07:27:15.641Z,1001.67
2022-07-30T07:28:20.317Z,1001.7
2022-07-30T07:29:24.902Z,1001.7
2022-07-30T07:30:29.699Z,1001.65
2022-07-30T07:32:02.409Z,1001.66
2022-07-30T07:32:58.312Z,1001.65
2022-07-30T07:34:02.898Z,1001.68
2022-07-30T07:35:07.542Z,1001.67
2022-07-30T07:36:12.581Z,1001.66
2022-07-30T07:37:17.131Z,1001.68
2022-07-30T07:38:21.716Z,1001.63
2022-07-30T07:39:26.301Z,1001.64
2022-07-30T07:40:30.896Z,1001.65
2022-07-30T07:41:49.604Z,1001.73
2022-07-30T07:42:53.859Z,1001.75
2022-07-30T07:43:58.399Z,1001.74
2022-07-30T07:45:03.223Z,1001.73
2022-07-30T07:46:33.265Z,1001.72
2022-07-30T07:47:38.269Z,1001.72
2022-07-30T07:48:42.855Z,1001.68
2022-07-30T07:49:47.373Z,1001.67
2022-07-30T07:50:51.901Z,1001.67
2022-07-30T07:51:56.392Z,1001.69
2022-07-30T07:53:01.185Z,1001.74
2022-07-30T07:54:22.454Z,1001.68
2022-07-30T07:55:33.984Z,1001.7
2022-07-30T07:56:39.834Z,1001.74
2022-07-30T07:58:03.146Z,1001.72
2022-07-30T07:59:08.647Z,1001.78
2022-07-30T08:00:13.094Z,1001.73
2022-07-30T08:01:18.099Z,1001.73
2022-07-30T08:02:22.989Z,1001.73
2022-07-30T08:03:27.650Z,1001.72
2022-07-30T08:04:32.246Z,1001.72
2022-07-30T08:05:54.071Z,1001.63
2022-07-30T08:07:02.421Z,1001.64
2022-07-30T08:08:07.100Z,1001.61
2022-07-30T08:09:11.646Z,1001.6
2022-07-30T08:10:16.530Z,1001.63
2022-07-30T08:11:21.086Z,1001.63
2022-07-30T08:12:25.692Z,1001.62
2022-07-30T08:13:48.266Z,1001.61
2022-07-30T08:14:54.091Z,1001.62
2022-07-30T08:15:58.630Z,1001.6
2022-07-30T08:17:04.407Z,1001.61
2022-07-30T08:18:09.409Z,1001.63
2022-07-30T08:19:13.947Z,1001.58
2022-07-30T08:20:18.599Z,1001.53
2022-07-30T08:21:23.197Z,1001.57
2022-07-30T08:22:31.292Z,1001.51
2022-07-30T08:23:51.007Z,1001.57
2022-07-30T08:25:04.415Z,1001.56
2022-07-30T08:26:08.874Z,1001.57
2022-07-30T08:27:13.440Z,1001.57
2022-07-30T08:28:36.766Z,1001.64
2022-07-30T08:29:44.779Z,1001.59
2022-07-30T08:30:49.216Z,1001.62
2022-07-30T08:31:53.840Z,1001.61
2022-07-30T08:32:58.554Z,1001.61
2022-07-30T08:34:03.189Z,1001.61
2022-07-30T08:35:07.733Z,1001.66
2022-07-30T08:36:12.657Z,1001.56
2022-07-30T08:37:17.280Z,1001.61
2022-07-30T08:38:24.093Z,1001.58
2022-07-30T08:39:29.721Z,1001.56
2022-07-30T08:40:34.313Z,1001.58
2022-07-30T08:41:38.840Z,1001.59
2022-07-30T08:42:46.477Z,1001.58
2022-07-30T08:43:50.995Z,1001.53
2022-07-30T08:44:59.095Z,1001.58
2022-07-30T08:46:03.497Z,1001.5
2022-07-30T08:47:08.129Z,1001.53
2022-07-30T08:48:17.064Z,1001.62
2022-07-30T08:49:21.489Z,1001.57
2022-07-30T08:50:26.083Z,1001.57
2022-07-30T08:51:38.165Z,1001.6
2022-07-30T08:52:42.503Z,1001.55
2022-07-30T08:53:47.120Z,1001.57
2022-07-30T08:54:51.683Z,1001.57
2022-07-30T08:55:59.778Z,1001.59
2022-07-30T08:57:04.924Z,1001.6
2022-07-30T08:58:18.321Z,1001.61
2022-07-30T08:59:22.617Z,1001.61
2022-07-30T09:00:28.729Z,1001.6
2022-07-30T09:01:33.199Z,1001.6
2022-07-30T09:02:41.233Z,1001.57
2022-07-30T09:03:45.629Z,1001.55
2022-07-30T09:04:54.283Z,1001.57
2022-07-30T09:06:01.147Z,1001.57
2022-07-30T09:07:08.343Z,1001.54
2022-07-30T09:08:20.134Z,1001.55
2022-07-30T09:09:24.453Z,1001.55
2022-07-30T09:10:29.099Z,1001.58
2022-07-30T09:11:33.736Z,1001.58
2022-07-30T09:12:41.891Z,1001.53
2022-07-30T09:13:46.338Z,1001.52
2022-07-30T09:14:52.014Z,1001.54
2022-07-30T09:15:56.512Z,1001.57
2022-07-30T09:17:02.415Z,1001.66
2022-07-30T09:18:07.019Z,1001.63
2022-07-30T09:19:11.574Z,1001.63
2022-07-30T09:20:16.149Z,1001.64
2022-07-30T09:21:20.755Z,1001.61
2022-07-30T09:22:25.372Z,1001.62
2022-07-30T09:23:30.223Z,1001.66
2022-07-30T09:24:36.886Z,1001.59
2022-07-30T09:25:41.390Z,1001.6
2022-07-30T09:26:45.984Z,1001.55
2022-07-30T09:27:50.568Z,1001.57
2022-07-30T09:28:55.128Z,1001.6
2022-07-30T09:29:59.830Z,1001.64
2022-07-30T09:31:04.992Z,1001.52
2022-07-30T09:32:09.898Z,1001.61
2022-07-30T09:33:14.541Z,1001.63
2022-07-30T09:34:19.148Z,1001.64
2022-07-30T09:35:23.883Z,1001.63
2022-07-30T09:36:28.495Z,1001.6
2022-07-30T09:37:36.578Z,1001.59
2022-07-30T09:38:56.798Z,1001.54
2022-07-30T09:40:02.061Z,1001.62
2022-07-30T09:41:38.041Z,1001.6
2022-07-30T09:42:30.642Z,1001.64
2022-07-30T09:43:35.169Z,1001.63
2022-07-30T09:44:39.727Z,1001.61
2022-07-30T09:45:58.664Z,1001.59
2022-07-30T09:47:04.032Z,1001.64
2022-07-30T09:48:08.516Z,1001.6
2022-07-30T09:49:13.451Z,1001.58
2022-07-30T09:50:30.871Z,1001.56
2022-07-30T09:51:54.937Z,1001.61
2022-07-30T09:52:59.641Z,1001.58
2022-07-30T09:54:09.695Z,1001.51
2022-07-30T09:55:14.139Z,1001.51
2022-07-30T09:56:18.696Z,1001.49
2022-07-30T09:57:28.868Z,1001.47
2022-07-30T09:58:33.207Z,1001.42
2022-07-30T09:59:37.818Z,1001.44
2022-07-30T10:00:43.609Z,1001.48
2022-07-30T10:02:10.088Z,1001.45
2022-07-30T10:03:33.465Z,1001.46
2022-07-30T10:04:40.697Z,1001.38
2022-07-30T10:05:46.399Z,1001.4
2022-07-30T10:06:51.873Z,1001.39
2022-07-30T10:07:57.191Z,1001.47
2022-07-30T10:09:16.464Z,1001.45
2022-07-30T10:10:21.028Z,1001.39
2022-07-30T10:11:25.537Z,1001.36
2022-07-30T10:12:30.982Z,1001.4
2022-07-30T10:13:35.507Z,1001.4
2022-07-30T10:14:44.102Z,1001.41
2022-07-30T10:15:48.969Z,1001.45
2022-07-30T10:16:59.580Z,1001.42
2022-07-30T10:18:09.467Z,1001.35
2022-07-30T10:19:39.731Z,1001.35
2022-07-30T10:20:37.136Z,1001.35
2022-07-30T10:21:41.642Z,1001.34
2022-07-30T10:22:51.037Z,1001.31
2022-07-30T10:23:55.418Z,1001.32
2022-07-30T10:24:59.947Z,1001.33
2022-07-30T10:26:04.675Z,1001.32
2022-07-30T10:27:13.880Z,1001.29
2022-07-30T10:28:18.305Z,1001.36
2022-07-30T10:29:34.369Z,1001.3
2022-07-30T10:30:39.967Z,1001.39
2022-07-30T10:31:54.804Z,1001.31
2022-07-30T10:33:01.947Z,1001.38
2022-07-30T10:34:07.704Z,1001.34
2022-07-30T10:35:31.315Z,1001.34
2022-07-30T10:36:36.586Z,1001.23
2022-07-30T10:37:41.589Z,1001.3
2022-07-30T10:38:53.308Z,1001.33
2022-07-30T10:39:58.054Z,1001.33
2022-07-30T10:41:05.460Z,1001.28
2022-07-30T10:42:10.071Z,1001.27
2022-07-30T10:43:18.122Z,1001.3
2022-07-30T10:44:23.188Z,1001.25
2022-07-30T10:45:28.107Z,1001.22
2022-07-30T10:46:33.701Z,1001.26
2022-07-30T10:47:51.021Z,1001.18
2022-07-30T10:48:57.904Z,1001.2
2022-07-30T10:50:02.333Z,1001.23
2022-07-30T10:51:08.665Z,1001.18
2022-07-30T10:52:13.118Z,1001.16
2022-07-30T10:53:20.352Z,1001.2
2022-07-30T10:54:24.774Z,1001.17
2022-07-30T10:55:39.639Z,1001.18
2022-07-30T10:56:44.909Z,1001.16
2022-07-30T10:57:52.548Z,1001.11
2022-07-30T10:58:56.901Z,1001.18
2022-07-30T11:00:04.676Z,1001.23
2022-07-30T11:01:18.991Z,1001.2
2022-07-30T11:02:23.623Z,1001.22
2022-07-30T11:03:45.170Z,1001.18
2022-07-30T11:04:49.981Z,1001.15
2022-07-30T11:05:55.931Z,1001.19
2022-07-30T11:07:00.822Z,1001.18
2022-07-30T11:08:08.701Z,1001.18
2022-07-30T11:09:13.260Z,1001.2
2022-07-30T11:10:17.865Z,1001.23
2022-07-30T11:11:59.862Z,1001.19
2022-07-30T11:12:53.262Z,1001.1
2022-07-30T11:13:57.748Z,1001.13
2022-07-30T11:15:17.678Z,1001.14
2022-07-30T11:16:23.666Z,1001.15
2022-07-30T11:17:32.224Z,1001.15
2022-07-30T11:18:39.235Z,1001.12
2022-07-30T11:19:59.584Z,1001.06
2022-07-30T11:21:06.330Z,1001.21
2022-07-30T11:22:11.438Z,1001.08
2022-07-30T11:23:15.951Z,1001.17
2022-07-30T11:24:22.501Z,1001.17
2022-07-30T11:25:50.833Z,1001.12
2022-07-30T11:26:50.780Z,1001.1
2022-07-30T11:27:55.378Z,1001.08
2022-07-30T11:29:00.373Z,1001.06
2022-07-30T11:30:04.916Z,1001.11
2022-07-30T11:31:10.933Z,1001.02
2022-07-30T11:32:16.012Z,1001.04
2022-07-30T11:33:31.950Z,1001.02
2022-07-30T11:34:38.884Z,1000.99
2022-07-30T11:35:43.230Z,1000.98
2022-07-30T11:36:49.396Z,1000.95
2022-07-30T11:37:57.091Z,1000.94
2022-07-30T11:39:07.819Z,1000.94
2022-07-30T11:40:12.081Z,1000.93
2022-07-30T11:41:16.604Z,1000.91
2022-07-30T11:42:21.188Z,1000.9
2022-07-30T11:43:37.240Z,1000.93
2022-07-30T11:44:41.453Z,1000.9
2022-07-30T11:45:46.738Z,1000.85
2022-07-30T11:46:52.327Z,1000.89
2022-07-30T11:47:56.801Z,1000.91
2022-07-30T11:49:01.670Z,1000.88
2022-07-30T11:50:06.319Z,1000.84
2022-07-30T11:51:10.882Z,1000.84
2022-07-30T11:52:15.463Z,1000.89
2022-07-30T11:53:21.281Z,1000.95
2022-07-30T11:54:25.857Z,1000.9
2022-07-30T11:55:30.405Z,1000.94
2022-07-30T11:56:34.988Z,1001
2022-07-30T11:57:39.518Z,1000.94
2022-07-30T11:58:44.059Z,1000.96
2022-07-30T11:59:52.138Z,1000.97
2022-07-30T12:00:56.582Z,1000.94
2022-07-30T12:02:02.936Z,1000.95
2022-07-30T12:03:07.489Z,1000.95
2022-07-30T12:04:12.062Z,1000.93
2022-07-30T12:05:16.612Z,1000.91
2022-07-30T12:06:21.214Z,1000.93
2022-07-30T12:07:25.839Z,1000.85
2022-07-30T12:08:36.661Z,1000.85
2022-07-30T12:09:44.109Z,1000.88
2022-07-30T12:10:48.486Z,1000.88
2022-07-30T12:11:53.741Z,1000.84
2022-07-30T12:12:58.153Z,1000.92
2022-07-30T12:14:02.718Z,1000.82
2022-07-30T12:15:07.306Z,1000.9
2022-07-30T12:16:11.793Z,1000.89
2022-07-30T12:17:16.456Z,1000.81
2022-07-30T12:18:27.451Z,1000.86
2022-07-30T12:19:47.657Z,1000.85
2022-07-30T12:20:52.336Z,1000.77
2022-07-30T12:21:56.847Z,1000.81
2022-07-30T12:23:01.377Z,1000.78
2022-07-30T12:24:06.045Z,1000.81
2022-07-30T12:25:19.055Z,1000.84
2022-07-30T12:26:27.455Z,1000.81
2022-07-30T12:27:31.768Z,1000.73
2022-07-30T12:28:36.315Z,1000.72
2022-07-30T12:29:40.930Z,1000.71
2022-07-30T12:30:46.567Z,1000.63
2022-07-30T12:31:51.127Z,1000.6
2022-07-30T12:32:55.680Z,1000.67
2022-07-30T12:34:10.305Z,1000.65
2022-07-30T12:35:14.493Z,1000.62
2022-07-30T12:36:19.003Z,1000.63
2022-07-30T12:37:35.061Z,1000.6
2022-07-30T12:38:39.629Z,1000.61
2022-07-30T12:39:44.149Z,1000.59
2022-07-30T12:40:50.072Z,1000.58
2022-07-30T12:41:54.534Z,1000.63
2022-07-30T12:42:59.087Z,1000.66
2022-07-30T12:44:03.655Z,1000.62
2022-07-30T12:45:08.164Z,1000.61
2022-07-30T12:46:15.530Z,1000.62
2022-07-30T12:47:23.366Z,1000.56
2022-07-30T12:48:30.097Z,1000.6
2022-07-30T12:49:50.525Z,1000.51
2022-07-30T12:50:57.426Z,1000.56
2022-07-30T12:52:02.342Z,1000.54
2022-07-30T12:53:06.769Z,1000.47
2022-07-30T12:54:11.310Z,1000.47
2022-07-30T12:55:15.856Z,1000.45
2022-07-30T12:56:20.509Z,1000.47
2022-07-30T12:57:25.077Z,1000.45
2022-07-30T12:58:32.494Z,1000.42
2022-07-30T12:59:42.383Z,1000.44
2022-07-30T13:00:49.494Z,1000.49
2022-07-30T13:01:57.196Z,1000.47
2022-07-30T13:03:01.644Z,1000.51
2022-07-30T13:04:06.166Z,1000.47
2022-07-30T13:05:12.493Z,1000.45
2022-07-30T13:06:16.905Z,1000.44
2022-07-30T13:07:21.434Z,1000.46
2022-07-30T13:08:25.993Z,1000.4
2022-07-30T13:09:30.522Z,1000.42
2022-07-30T13:10:35.181Z,1000.41
2022-07-30T13:11:39.724Z,1000.4
2022-07-30T13:12:44.260Z,1000.38
2022-07-30T13:13:48.825Z,1000.35
2022-07-30T13:14:53.414Z,1000.28
2022-07-30T13:15:58.022Z,1000.26
2022-07-30T13:17:06.502Z,1000.29
2022-07-30T13:18:14.009Z,1000.26
2022-07-30T13:19:18.416Z,1000.27
2022-07-30T13:20:23.468Z,1000.28
2022-07-30T13:21:28.065Z,1000.33
2022-07-30T13:22:32.645Z,1000.35
2022-07-30T13:23:37.185Z,1000.32
2022-07-30T13:24:41.796Z,1000.35
2022-07-30T13:25:46.317Z,1000.37
2022-07-30T13:26:55.833Z,1000.37
2022-07-30T13:28:00.531Z,1000.37
2022-07-30T13:29:05.097Z,1000.35